sensor_id;sensor_type;location;lat;lon;timestamp;P1;durP1;ratioP1;P2;durP2;ratioP2
64500;SDS011;50874;24.150;-110.320;2022-11-20T00:01:20;1.80;;;1.30;;
64500;SDS011;50874;24.150;-110.320;2022-11-20T00:03:48;9.23;;;1.40;;
64500;SDS011;50874;24.150;-110.320;2022-11-20T00:06:17;5.80;;;1.27;;
64500;SDS011;50874;24.150;-110.320;2022-11-20T00:08:45;7.25;;;1.35;;
64500;SDS011;50874;24.150;-110.320;2022-11-20T00:11:16;9.65;;;1.70;;
64500;SDS011;50874;24.150;-110.320;2022-11-20T00:13:44;11.98;;;2.42;;
64500;SDS011;50874;24.150;-110.320;2022-11-20T00:16:13;4.40;;;1.23;;
64500;SDS011;50874;24.150;-110.320;2022-11-20T00:18:41;3.88;;;0.80;;
64500;SDS011;50874;24.150;-110.320;2022-11-20T00:21:15;5.13;;;0.85;;
64500;SDS011;50874;24.150;-110.320;2022-11-20T00:23:43;4.03;;;1.42;;
64500;SDS011;50874;24.150;-110.320;2022-11-20T00:26:11;3.40;;;1.15;;
64500;SDS011;50874;24.150;-110.320;2022-11-20T00:28:39;9.27;;;2.05;;
64500;SDS011;50874;24.150;-110.320;2022-11-20T00:31:08;6.78;;;1.45;;
64500;SDS011;50874;24.150;-110.320;2022-11-20T00:33:39;9.48;;;2.70;;
64500;SDS011;50874;24.150;-110.320;2022-11-20T00:36:08;10.55;;;2.00;;
64500;SDS011;50874;24.150;-110.320;2022-11-20T00:38:35;10.90;;;2.17;;
64500;SDS011;50874;24.150;-110.320;2022-11-20T00:41:03;7.68;;;1.60;;
64500;SDS011;50874;24.150;-110.320;2022-11-20T00:43:34;9.25;;;1.20;;
64500;SDS011;50874;24.150;-110.320;2022-11-20T00:46:02;8.77;;;1.08;;
64500;SDS011;50874;24.150;-110.320;2022-11-20T00:48:31;14.57;;;1.60;;
64500;SDS011;50874;24.150;-110.320;2022-11-20T00:50:57;6.80;;;1.40;;
64500;SDS011;50874;24.150;-110.320;2022-11-20T00:53:24;3.67;;;1.55;;
64500;SDS011;50874;24.150;-110.320;2022-11-20T00:55:58;7.45;;;1.45;;
64500;SDS011;50874;24.150;-110.320;2022-11-20T00:58:31;4.10;;;1.25;;
64500;SDS011;50874;24.150;-110.320;2022-11-20T01:01:00;2.95;;;1.10;;
64500;SDS011;50874;24.150;-110.320;2022-11-20T01:03:44;5.93;;;1.02;;
64500;SDS011;50874;24.150;-110.320;2022-11-20T01:06:13;5.47;;;1.40;;
64500;SDS011;50874;24.150;-110.320;2022-11-20T01:08:44;11.02;;;1.40;;
64500;SDS011;50874;24.150;-110.320;2022-11-20T01:11:13;4.30;;;1.10;;
64500;SDS011;50874;24.150;-110.320;2022-11-20T01:13:42;7.13;;;1.83;;
64500;SDS011;50874;24.150;-110.320;2022-11-20T01:16:11;6.47;;;2.03;;
64500;SDS011;50874;24.150;-110.320;2022-11-20T01:18:48;14.68;;;2.60;;
64500;SDS011;50874;24.150;-110.320;2022-11-20T01:21:17;28.70;;;3.22;;
64500;SDS011;50874;24.150;-110.320;2022-11-20T01:23:52;26.17;;;3.33;;
64500;SDS011;50874;24.150;-110.320;2022-11-20T01:26:20;20.58;;;2.55;;
64500;SDS011;50874;24.150;-110.320;2022-11-20T01:28:49;20.23;;;2.55;;
64500;SDS011;50874;24.150;-110.320;2022-11-20T01:31:18;32.88;;;3.45;;
64500;SDS011;50874;24.150;-110.320;2022-11-20T01:33:54;25.65;;;2.83;;
64500;SDS011;50874;24.150;-110.320;2022-11-20T01:36:23;14.63;;;3.92;;
64500;SDS011;50874;24.150;-110.320;2022-11-20T01:38:52;43.55;;;3.83;;
64500;SDS011;50874;24.150;-110.320;2022-11-20T01:41:23;26.27;;;4.93;;
64500;SDS011;50874;24.150;-110.320;2022-11-20T01:44:09;30.02;;;6.47;;
64500;SDS011;50874;24.150;-110.320;2022-11-20T01:46:40;26.05;;;8.95;;
64500;SDS011;50874;24.150;-110.320;2022-11-20T01:49:37;25.02;;;10.68;;
64500;SDS011;50874;24.150;-110.320;2022-11-20T01:52:13;22.75;;;8.10;;
64500;SDS011;50874;24.150;-110.320;2022-11-20T01:54:58;13.85;;;4.72;;
64500;SDS011;50874;24.150;-110.320;2022-11-20T01:57:26;27.05;;;3.85;;
64500;SDS011;50874;24.150;-110.320;2022-11-20T01:59:57;18.95;;;3.05;;
64500;SDS011;50874;24.150;-110.320;2022-11-20T02:02:30;8.25;;;2.40;;
64500;SDS011;50874;24.150;-110.320;2022-11-20T02:04:59;14.50;;;2.53;;
64500;SDS011;50874;24.150;-110.320;2022-11-20T02:07:29;9.52;;;2.47;;
64500;SDS011;50874;24.150;-110.320;2022-11-20T02:09:56;15.60;;;3.08;;
64500;SDS011;50874;24.150;-110.320;2022-11-20T02:12:23;14.63;;;2.85;;
64500;SDS011;50874;24.150;-110.320;2022-11-20T02:15:08;17.80;;;2.80;;
64500;SDS011;50874;24.150;-110.320;2022-11-20T02:17:35;22.33;;;3.35;;
64500;SDS011;50874;24.150;-110.320;2022-11-20T02:20:01;28.48;;;3.45;;
64500;SDS011;50874;24.150;-110.320;2022-11-20T02:22:29;19.52;;;3.10;;
64500;SDS011;50874;24.150;-110.320;2022-11-20T02:25:01;9.35;;;3.28;;
64500;SDS011;50874;24.150;-110.320;2022-11-20T02:27:29;18.60;;;5.22;;
64500;SDS011;50874;24.150;-110.320;2022-11-20T02:30:05;34.88;;;5.22;;
64500;SDS011;50874;24.150;-110.320;2022-11-20T02:32:34;27.55;;;5.30;;
64500;SDS011;50874;24.150;-110.320;2022-11-20T02:35:09;28.88;;;4.70;;
64500;SDS011;50874;24.150;-110.320;2022-11-20T02:37:57;20.92;;;3.45;;
64500;SDS011;50874;24.150;-110.320;2022-11-20T02:40:26;10.05;;;2.28;;
64500;SDS011;50874;24.150;-110.320;2022-11-20T02:42:54;9.30;;;2.75;;
64500;SDS011;50874;24.150;-110.320;2022-11-20T02:45:21;9.25;;;1.75;;
64500;SDS011;50874;24.150;-110.320;2022-11-20T02:47:48;15.75;;;2.75;;
64500;SDS011;50874;24.150;-110.320;2022-11-20T02:50:14;24.58;;;4.30;;
64500;SDS011;50874;24.150;-110.320;2022-11-20T02:52:41;31.25;;;4.80;;
64500;SDS011;50874;24.150;-110.320;2022-11-20T02:55:08;13.43;;;2.97;;
64500;SDS011;50874;24.150;-110.320;2022-11-20T02:57:34;12.25;;;1.88;;
64500;SDS011;50874;24.150;-110.320;2022-11-20T03:00:01;10.32;;;2.25;;
64500;SDS011;50874;24.150;-110.320;2022-11-20T03:02:31;13.35;;;2.38;;
64500;SDS011;50874;24.150;-110.320;2022-11-20T03:04:58;9.00;;;2.15;;
64500;SDS011;50874;24.150;-110.320;2022-11-20T03:07:24;7.63;;;1.92;;
64500;SDS011;50874;24.150;-110.320;2022-11-20T03:09:51;10.57;;;1.92;;
64500;SDS011;50874;24.150;-110.320;2022-11-20T03:12:17;12.32;;;1.95;;
64500;SDS011;50874;24.150;-110.320;2022-11-20T03:14:44;12.50;;;2.20;;
64500;SDS011;50874;24.150;-110.320;2022-11-20T03:17:10;17.88;;;1.67;;
64500;SDS011;50874;24.150;-110.320;2022-11-20T03:19:36;8.63;;;1.23;;
64500;SDS011;50874;24.150;-110.320;2022-11-20T03:22:03;6.38;;;1.73;;
64500;SDS011;50874;24.150;-110.320;2022-11-20T03:24:29;13.70;;;1.70;;
64500;SDS011;50874;24.150;-110.320;2022-11-20T03:26:56;10.40;;;2.50;;
64500;SDS011;50874;24.150;-110.320;2022-11-20T03:29:22;9.52;;;2.80;;
64500;SDS011;50874;24.150;-110.320;2022-11-20T03:31:49;7.22;;;1.60;;
64500;SDS011;50874;24.150;-110.320;2022-11-20T03:34:15;5.05;;;1.88;;
64500;SDS011;50874;24.150;-110.320;2022-11-20T03:36:42;7.63;;;1.67;;
64500;SDS011;50874;24.150;-110.320;2022-11-20T03:39:09;14.07;;;2.00;;
64500;SDS011;50874;24.150;-110.320;2022-11-20T03:41:36;11.43;;;1.90;;
64500;SDS011;50874;24.150;-110.320;2022-11-20T03:44:05;9.57;;;1.75;;
64500;SDS011;50874;24.150;-110.320;2022-11-20T03:46:33;8.90;;;2.72;;
64500;SDS011;50874;24.150;-110.320;2022-11-20T03:49:00;14.05;;;1.98;;
64500;SDS011;50874;24.150;-110.320;2022-11-20T03:51:28;12.15;;;2.28;;
64500;SDS011;50874;24.150;-110.320;2022-11-20T03:53:57;6.95;;;1.50;;
64500;SDS011;50874;24.150;-110.320;2022-11-20T03:56:26;14.77;;;2.88;;
64500;SDS011;50874;24.150;-110.320;2022-11-20T03:58:54;17.02;;;2.85;;
64500;SDS011;50874;24.150;-110.320;2022-11-20T04:01:22;20.85;;;3.47;;
64500;SDS011;50874;24.150;-110.320;2022-11-20T04:03:54;21.95;;;2.50;;
64500;SDS011;50874;24.150;-110.320;2022-11-20T04:06:22;20.02;;;2.38;;
64500;SDS011;50874;24.150;-110.320;2022-11-20T04:08:50;7.78;;;1.45;;
64500;SDS011;50874;24.150;-110.320;2022-11-20T04:11:23;11.77;;;2.92;;
64500;SDS011;50874;24.150;-110.320;2022-11-20T04:13:52;14.38;;;2.35;;
64500;SDS011;50874;24.150;-110.320;2022-11-20T04:16:20;7.60;;;1.90;;
64500;SDS011;50874;24.150;-110.320;2022-11-20T04:18:55;7.32;;;2.13;;
64500;SDS011;50874;24.150;-110.320;2022-11-20T04:21:23;13.95;;;2.88;;
64500;SDS011;50874;24.150;-110.320;2022-11-20T04:23:50;61.08;;;5.65;;
64500;SDS011;50874;24.150;-110.320;2022-11-20T04:26:21;39.40;;;4.80;;
64500;SDS011;50874;24.150;-110.320;2022-11-20T04:28:49;59.03;;;7.43;;
64500;SDS011;50874;24.150;-110.320;2022-11-20T04:31:20;27.95;;;4.07;;
64500;SDS011;50874;24.150;-110.320;2022-11-20T04:33:50;33.65;;;4.63;;
64500;SDS011;50874;24.150;-110.320;2022-11-20T04:36:18;45.90;;;5.75;;
64500;SDS011;50874;24.150;-110.320;2022-11-20T04:38:52;38.78;;;5.28;;
64500;SDS011;50874;24.150;-110.320;2022-11-20T04:41:22;42.05;;;5.72;;
64500;SDS011;50874;24.150;-110.320;2022-11-20T04:43:51;16.65;;;3.45;;
64500;SDS011;50874;24.150;-110.320;2022-11-20T04:46:24;10.45;;;2.47;;
64500;SDS011;50874;24.150;-110.320;2022-11-20T04:48:52;20.95;;;3.35;;
64500;SDS011;50874;24.150;-110.320;2022-11-20T04:51:19;37.97;;;6.03;;
64500;SDS011;50874;24.150;-110.320;2022-11-20T04:53:45;69.85;;;18.17;;
64500;SDS011;50874;24.150;-110.320;2022-11-20T04:56:12;59.42;;;7.93;;
64500;SDS011;50874;24.150;-110.320;2022-11-20T04:58:39;78.32;;;10.00;;
64500;SDS011;50874;24.150;-110.320;2022-11-20T05:01:07;40.55;;;4.90;;
64500;SDS011;50874;24.150;-110.320;2022-11-20T05:03:41;39.78;;;4.70;;
64500;SDS011;50874;24.150;-110.320;2022-11-20T05:06:09;34.60;;;4.75;;
64500;SDS011;50874;24.150;-110.320;2022-11-20T05:08:37;23.20;;;4.15;;
64500;SDS011;50874;24.150;-110.320;2022-11-20T05:11:11;41.67;;;5.80;;
64500;SDS011;50874;24.150;-110.320;2022-11-20T05:13:40;47.67;;;5.53;;
64500;SDS011;50874;24.150;-110.320;2022-11-20T05:16:08;46.90;;;7.38;;
64500;SDS011;50874;24.150;-110.320;2022-11-20T05:18:37;50.70;;;6.40;;
64500;SDS011;50874;24.150;-110.320;2022-11-20T05:21:04;36.58;;;6.82;;
64500;SDS011;50874;24.150;-110.320;2022-11-20T05:23:32;89.10;;;9.45;;
64500;SDS011;50874;24.150;-110.320;2022-11-20T05:25:59;58.58;;;6.97;;
64500;SDS011;50874;24.150;-110.320;2022-11-20T05:28:26;77.30;;;9.63;;
64500;SDS011;50874;24.150;-110.320;2022-11-20T05:30:53;96.07;;;10.98;;
64500;SDS011;50874;24.150;-110.320;2022-11-20T05:33:20;93.13;;;11.70;;
64500;SDS011;50874;24.150;-110.320;2022-11-20T05:35:47;169.88;;;18.13;;
64500;SDS011;50874;24.150;-110.320;2022-11-20T05:38:14;79.82;;;8.93;;
64500;SDS011;50874;24.150;-110.320;2022-11-20T05:40:40;74.18;;;10.05;;
64500;SDS011;50874;24.150;-110.320;2022-11-20T05:43:07;84.45;;;19.52;;
64500;SDS011;50874;24.150;-110.320;2022-11-20T05:45:33;60.55;;;14.15;;
64500;SDS011;50874;24.150;-110.320;2022-11-20T05:48:02;44.47;;;6.05;;
64500;SDS011;50874;24.150;-110.320;2022-11-20T05:50:29;166.30;;;18.38;;
64500;SDS011;50874;24.150;-110.320;2022-11-20T05:52:57;88.22;;;12.52;;
64500;SDS011;50874;24.150;-110.320;2022-11-20T05:55:25;31.02;;;5.85;;
64500;SDS011;50874;24.150;-110.320;2022-11-20T05:57:53;28.10;;;4.78;;
64500;SDS011;50874;24.150;-110.320;2022-11-20T06:00:20;21.80;;;3.72;;
64500;SDS011;50874;24.150;-110.320;2022-11-20T06:02:46;36.72;;;5.40;;
64500;SDS011;50874;24.150;-110.320;2022-11-20T06:05:13;28.35;;;4.35;;
64500;SDS011;50874;24.150;-110.320;2022-11-20T06:07:39;38.05;;;4.32;;
64500;SDS011;50874;24.150;-110.320;2022-11-20T06:10:06;26.15;;;4.35;;
64500;SDS011;50874;24.150;-110.320;2022-11-20T06:12:32;69.45;;;9.48;;
64500;SDS011;50874;24.150;-110.320;2022-11-20T06:14:59;49.08;;;5.28;;
64500;SDS011;50874;24.150;-110.320;2022-11-20T06:17:26;45.38;;;6.13;;
64500;SDS011;50874;24.150;-110.320;2022-11-20T06:19:52;44.85;;;5.32;;
64500;SDS011;50874;24.150;-110.320;2022-11-20T06:22:18;41.08;;;5.60;;
64500;SDS011;50874;24.150;-110.320;2022-11-20T06:24:45;29.85;;;6.18;;
64500;SDS011;50874;24.150;-110.320;2022-11-20T06:27:11;27.90;;;4.20;;
64500;SDS011;50874;24.150;-110.320;2022-11-20T06:29:38;51.25;;;7.03;;
64500;SDS011;50874;24.150;-110.320;2022-11-20T06:32:04;22.38;;;3.47;;
64500;SDS011;50874;24.150;-110.320;2022-11-20T06:34:31;29.67;;;4.90;;
64500;SDS011;50874;24.150;-110.320;2022-11-20T06:36:57;18.30;;;3.22;;
64500;SDS011;50874;24.150;-110.320;2022-11-20T06:39:24;24.02;;;4.60;;
64500;SDS011;50874;24.150;-110.320;2022-11-20T06:41:50;14.80;;;3.13;;
64500;SDS011;50874;24.150;-110.320;2022-11-20T06:44:17;24.20;;;3.55;;
64500;SDS011;50874;24.150;-110.320;2022-11-20T06:46:43;26.30;;;3.15;;
64500;SDS011;50874;24.150;-110.320;2022-11-20T06:49:10;21.58;;;3.80;;
64500;SDS011;50874;24.150;-110.320;2022-11-20T06:51:36;13.77;;;2.97;;
64500;SDS011;50874;24.150;-110.320;2022-11-20T06:54:02;31.58;;;3.72;;
64500;SDS011;50874;24.150;-110.320;2022-11-20T06:56:29;13.73;;;2.75;;
64500;SDS011;50874;24.150;-110.320;2022-11-20T06:58:55;27.60;;;3.65;;
64500;SDS011;50874;24.150;-110.320;2022-11-20T07:01:22;30.95;;;3.45;;
64500;SDS011;50874;24.150;-110.320;2022-11-20T07:03:49;9.02;;;2.08;;
64500;SDS011;50874;24.150;-110.320;2022-11-20T07:06:16;12.82;;;1.50;;
64500;SDS011;50874;24.150;-110.320;2022-11-20T07:08:42;18.92;;;2.05;;
64500;SDS011;50874;24.150;-110.320;2022-11-20T07:11:11;6.40;;;1.90;;
64500;SDS011;50874;24.150;-110.320;2022-11-20T07:13:38;15.88;;;1.70;;
64500;SDS011;50874;24.150;-110.320;2022-11-20T07:16:05;5.93;;;1.23;;
64500;SDS011;50874;24.150;-110.320;2022-11-20T07:18:33;6.07;;;1.50;;
64500;SDS011;50874;24.150;-110.320;2022-11-20T07:21:03;8.65;;;2.22;;
64500;SDS011;50874;24.150;-110.320;2022-11-20T07:23:32;9.20;;;2.15;;
64500;SDS011;50874;24.150;-110.320;2022-11-20T07:26:02;8.82;;;1.75;;
64500;SDS011;50874;24.150;-110.320;2022-11-20T07:28:33;5.80;;;1.60;;
64500;SDS011;50874;24.150;-110.320;2022-11-20T07:31:00;16.00;;;2.47;;
64500;SDS011;50874;24.150;-110.320;2022-11-20T07:33:27;13.68;;;2.15;;
64500;SDS011;50874;24.150;-110.320;2022-11-20T07:35:53;16.77;;;2.22;;
64500;SDS011;50874;24.150;-110.320;2022-11-20T07:38:20;12.60;;;2.28;;
64500;SDS011;50874;24.150;-110.320;2022-11-20T07:40:46;24.15;;;3.58;;
64500;SDS011;50874;24.150;-110.320;2022-11-20T07:43:13;18.75;;;3.75;;
64500;SDS011;50874;24.150;-110.320;2022-11-20T07:45:39;10.27;;;1.60;;
64500;SDS011;50874;24.150;-110.320;2022-11-20T07:48:06;12.07;;;2.17;;
64500;SDS011;50874;24.150;-110.320;2022-11-20T07:50:32;7.15;;;1.90;;
64500;SDS011;50874;24.150;-110.320;2022-11-20T07:53:04;8.80;;;1.55;;
64500;SDS011;50874;24.150;-110.320;2022-11-20T07:55:31;6.60;;;1.70;;
64500;SDS011;50874;24.150;-110.320;2022-11-20T07:57:58;7.55;;;2.05;;
64500;SDS011;50874;24.150;-110.320;2022-11-20T08:00:25;8.38;;;1.80;;
64500;SDS011;50874;24.150;-110.320;2022-11-20T08:02:51;10.73;;;1.63;;
64500;SDS011;50874;24.150;-110.320;2022-11-20T08:05:18;6.03;;;1.40;;
64500;SDS011;50874;24.150;-110.320;2022-11-20T08:07:44;3.88;;;1.98;;
64500;SDS011;50874;24.150;-110.320;2022-11-20T08:10:12;5.25;;;1.70;;
64500;SDS011;50874;24.150;-110.320;2022-11-20T08:12:44;30.10;;;3.85;;
64500;SDS011;50874;24.150;-110.320;2022-11-20T08:15:30;11.70;;;2.90;;
64500;SDS011;50874;24.150;-110.320;2022-11-20T08:18:14;18.58;;;3.95;;
64500;SDS011;50874;24.150;-110.320;2022-11-20T08:23:07;7.85;;;2.55;;
64500;SDS011;50874;24.150;-110.320;2022-11-20T08:25:35;7.68;;;1.50;;
64500;SDS011;50874;24.150;-110.320;2022-11-20T08:28:06;14.82;;;2.88;;
64500;SDS011;50874;24.150;-110.320;2022-11-20T08:30:34;14.05;;;1.88;;
64500;SDS011;50874;24.150;-110.320;2022-11-20T08:33:10;22.08;;;3.03;;
64500;SDS011;50874;24.150;-110.320;2022-11-20T08:35:37;13.23;;;2.40;;
64500;SDS011;50874;24.150;-110.320;2022-11-20T08:38:04;13.93;;;2.33;;
64500;SDS011;50874;24.150;-110.320;2022-11-20T08:40:31;16.25;;;2.58;;
64500;SDS011;50874;24.150;-110.320;2022-11-20T08:42:58;16.83;;;2.58;;
64500;SDS011;50874;24.150;-110.320;2022-11-20T08:45:24;7.40;;;1.70;;
64500;SDS011;50874;24.150;-110.320;2022-11-20T08:47:51;11.23;;;1.98;;
64500;SDS011;50874;24.150;-110.320;2022-11-20T08:50:17;9.13;;;1.77;;
64500;SDS011;50874;24.150;-110.320;2022-11-20T08:52:44;7.05;;;1.63;;
64500;SDS011;50874;24.150;-110.320;2022-11-20T08:55:11;15.85;;;2.45;;
64500;SDS011;50874;24.150;-110.320;2022-11-20T08:57:38;10.13;;;1.70;;
64500;SDS011;50874;24.150;-110.320;2022-11-20T09:00:05;5.57;;;1.70;;
64500;SDS011;50874;24.150;-110.320;2022-11-20T09:02:33;7.38;;;1.30;;
64500;SDS011;50874;24.150;-110.320;2022-11-20T09:04:59;5.88;;;1.85;;
64500;SDS011;50874;24.150;-110.320;2022-11-20T09:07:27;11.13;;;2.00;;
64500;SDS011;50874;24.150;-110.320;2022-11-20T09:09:54;6.57;;;2.03;;
64500;SDS011;50874;24.150;-110.320;2022-11-20T09:12:21;9.50;;;1.90;;
64500;SDS011;50874;24.150;-110.320;2022-11-20T09:14:47;4.20;;;1.70;;
64500;SDS011;50874;24.150;-110.320;2022-11-20T09:17:13;7.75;;;1.77;;
64500;SDS011;50874;24.150;-110.320;2022-11-20T09:19:40;5.10;;;1.63;;
64500;SDS011;50874;24.150;-110.320;2022-11-20T09:22:06;8.98;;;2.15;;
64500;SDS011;50874;24.150;-110.320;2022-11-20T09:24:33;7.70;;;1.80;;
64500;SDS011;50874;24.150;-110.320;2022-11-20T09:27:03;5.97;;;1.67;;
64500;SDS011;50874;24.150;-110.320;2022-11-20T09:29:30;13.23;;;2.10;;
64500;SDS011;50874;24.150;-110.320;2022-11-20T09:31:56;8.30;;;2.30;;
64500;SDS011;50874;24.150;-110.320;2022-11-20T09:34:23;7.07;;;1.58;;
64500;SDS011;50874;24.150;-110.320;2022-11-20T09:36:50;11.15;;;2.42;;
64500;SDS011;50874;24.150;-110.320;2022-11-20T09:39:16;13.38;;;2.20;;
64500;SDS011;50874;24.150;-110.320;2022-11-20T09:41:47;5.15;;;1.63;;
64500;SDS011;50874;24.150;-110.320;2022-11-20T09:50:02;2.97;;;1.15;;
64500;SDS011;50874;24.150;-110.320;2022-11-20T09:55:38;10.90;;;2.88;;
64500;SDS011;50874;24.150;-110.320;2022-11-20T09:58:05;3.20;;;1.40;;
64500;SDS011;50874;24.150;-110.320;2022-11-20T10:00:38;12.13;;;2.08;;
64500;SDS011;50874;24.150;-110.320;2022-11-20T10:03:18;11.98;;;2.00;;
64500;SDS011;50874;24.150;-110.320;2022-11-20T10:05:53;18.88;;;2.42;;
64500;SDS011;50874;24.150;-110.320;2022-11-20T10:10:51;11.38;;;2.05;;
64500;SDS011;50874;24.150;-110.320;2022-11-20T10:13:48;8.63;;;2.45;;
64500;SDS011;50874;24.150;-110.320;2022-11-20T10:17:11;18.90;;;2.60;;
64500;SDS011;50874;24.150;-110.320;2022-11-20T10:25:19;43.70;;;4.15;;
64500;SDS011;50874;24.150;-110.320;2022-11-20T10:30:36;3.55;;;1.77;;
64500;SDS011;50874;24.150;-110.320;2022-11-20T10:33:15;6.20;;;1.73;;
64500;SDS011;50874;24.150;-110.320;2022-11-20T10:38:58;12.70;;;2.47;;
64500;SDS011;50874;24.150;-110.320;2022-11-20T10:41:32;13.40;;;2.25;;
64500;SDS011;50874;24.150;-110.320;2022-11-20T10:44:05;7.93;;;1.63;;
64500;SDS011;50874;24.150;-110.320;2022-11-20T10:46:40;3.53;;;1.83;;
64500;SDS011;50874;24.150;-110.320;2022-11-20T10:49:16;2.88;;;1.38;;
64500;SDS011;50874;24.150;-110.320;2022-11-20T11:00:13;6.82;;;1.60;;
64500;SDS011;50874;24.150;-110.320;2022-11-20T11:07:54;6.82;;;2.15;;
64500;SDS011;50874;24.150;-110.320;2022-11-20T11:13:28;4.65;;;1.35;;
64500;SDS011;50874;24.150;-110.320;2022-11-20T11:15:56;3.80;;;1.38;;
64500;SDS011;50874;24.150;-110.320;2022-11-20T11:20:50;4.90;;;1.75;;
64500;SDS011;50874;24.150;-110.320;2022-11-20T11:23:36;4.35;;;1.52;;
64500;SDS011;50874;24.150;-110.320;2022-11-20T11:26:19;8.98;;;1.50;;
64500;SDS011;50874;24.150;-110.320;2022-11-20T11:29:02;6.40;;;1.60;;
64500;SDS011;50874;24.150;-110.320;2022-11-20T11:31:30;6.20;;;1.50;;
64500;SDS011;50874;24.150;-110.320;2022-11-20T11:34:07;7.95;;;1.73;;
64500;SDS011;50874;24.150;-110.320;2022-11-20T11:36:38;6.05;;;1.58;;
64500;SDS011;50874;24.150;-110.320;2022-11-20T11:39:05;7.60;;;1.15;;
64500;SDS011;50874;24.150;-110.320;2022-11-20T11:41:39;7.95;;;1.35;;
64500;SDS011;50874;24.150;-110.320;2022-11-20T11:44:17;6.03;;;1.40;;
64500;SDS011;50874;24.150;-110.320;2022-11-20T11:47:05;7.30;;;1.70;;
64500;SDS011;50874;24.150;-110.320;2022-11-20T11:50:28;10.57;;;1.83;;
64500;SDS011;50874;24.150;-110.320;2022-11-20T11:53:03;15.05;;;1.85;;
64500;SDS011;50874;24.150;-110.320;2022-11-20T11:55:53;9.27;;;1.58;;
64500;SDS011;50874;24.150;-110.320;2022-11-20T11:58:46;6.28;;;1.60;;
64500;SDS011;50874;24.150;-110.320;2022-11-20T12:06:51;6.68;;;1.70;;
64500;SDS011;50874;24.150;-110.320;2022-11-20T12:09:27;7.40;;;1.30;;
64500;SDS011;50874;24.150;-110.320;2022-11-20T12:12:05;6.85;;;1.73;;
64500;SDS011;50874;24.150;-110.320;2022-11-20T12:14:39;14.82;;;2.38;;
64500;SDS011;50874;24.150;-110.320;2022-11-20T12:17:11;8.40;;;2.15;;
64500;SDS011;50874;24.150;-110.320;2022-11-20T12:19:39;8.50;;;1.70;;
64500;SDS011;50874;24.150;-110.320;2022-11-20T12:30:17;11.13;;;1.88;;
64500;SDS011;50874;24.150;-110.320;2022-11-20T12:35:39;10.50;;;1.70;;
64500;SDS011;50874;24.150;-110.320;2022-11-20T12:38:32;10.45;;;2.13;;
64500;SDS011;50874;24.150;-110.320;2022-11-20T12:50:02;15.30;;;2.10;;
64500;SDS011;50874;24.150;-110.320;2022-11-20T12:52:42;10.70;;;1.55;;
64500;SDS011;50874;24.150;-110.320;2022-11-20T12:58:05;4.03;;;1.50;;
64500;SDS011;50874;24.150;-110.320;2022-11-20T13:01:10;5.05;;;1.60;;
64500;SDS011;50874;24.150;-110.320;2022-11-20T13:04:13;4.63;;;1.20;;
64500;SDS011;50874;24.150;-110.320;2022-11-20T13:06:43;13.43;;;3.22;;
64500;SDS011;50874;24.150;-110.320;2022-11-20T13:09:13;182.85;;;18.33;;
64500;SDS011;50874;24.150;-110.320;2022-11-20T13:11:50;15.77;;;2.50;;
64500;SDS011;50874;24.150;-110.320;2022-11-20T13:14:37;16.98;;;2.30;;
64500;SDS011;50874;24.150;-110.320;2022-11-20T13:20:21;11.20;;;1.95;;
64500;SDS011;50874;24.150;-110.320;2022-11-20T13:22:49;13.40;;;2.60;;
64500;SDS011;50874;24.150;-110.320;2022-11-20T13:27:50;14.45;;;2.10;;
64500;SDS011;50874;24.150;-110.320;2022-11-20T13:30:27;28.45;;;3.13;;
64500;SDS011;50874;24.150;-110.320;2022-11-20T13:32:55;35.65;;;7.07;;
64500;SDS011;50874;24.150;-110.320;2022-11-20T13:38:40;8.80;;;2.78;;
64500;SDS011;50874;24.150;-110.320;2022-11-20T13:46:46;23.58;;;3.20;;
64500;SDS011;50874;24.150;-110.320;2022-11-20T13:51:51;17.45;;;2.38;;
64500;SDS011;50874;24.150;-110.320;2022-11-20T14:01:15;12.90;;;3.53;;
64500;SDS011;50874;24.150;-110.320;2022-11-20T14:03:45;46.03;;;4.90;;
64500;SDS011;50874;24.150;-110.320;2022-11-20T14:08:57;78.35;;;9.18;;
64500;SDS011;50874;24.150;-110.320;2022-11-20T14:11:25;78.07;;;8.57;;
64500;SDS011;50874;24.150;-110.320;2022-11-20T14:16:44;69.57;;;7.68;;
64500;SDS011;50874;24.150;-110.320;2022-11-20T14:19:32;49.75;;;6.15;;
64500;SDS011;50874;24.150;-110.320;2022-11-20T14:24:35;32.72;;;4.50;;
64500;SDS011;50874;24.150;-110.320;2022-11-20T14:27:02;28.45;;;3.40;;
64500;SDS011;50874;24.150;-110.320;2022-11-20T14:29:30;29.20;;;4.10;;
64500;SDS011;50874;24.150;-110.320;2022-11-20T14:32:01;25.85;;;4.75;;
64500;SDS011;50874;24.150;-110.320;2022-11-20T14:34:29;18.05;;;3.92;;
64500;SDS011;50874;24.150;-110.320;2022-11-20T14:37:02;15.48;;;3.45;;
64500;SDS011;50874;24.150;-110.320;2022-11-20T14:39:39;24.38;;;4.28;;
64500;SDS011;50874;24.150;-110.320;2022-11-20T14:42:21;18.33;;;3.50;;
64500;SDS011;50874;24.150;-110.320;2022-11-20T14:44:49;8.65;;;2.22;;
64500;SDS011;50874;24.150;-110.320;2022-11-20T14:47:21;14.50;;;2.90;;
64500;SDS011;50874;24.150;-110.320;2022-11-20T14:49:52;10.52;;;2.10;;
64500;SDS011;50874;24.150;-110.320;2022-11-20T14:52:21;10.18;;;2.40;;
64500;SDS011;50874;24.150;-110.320;2022-11-20T14:54:50;14.60;;;2.50;;
64500;SDS011;50874;24.150;-110.320;2022-11-20T14:57:28;7.75;;;2.50;;
64500;SDS011;50874;24.150;-110.320;2022-11-20T15:02:33;15.40;;;2.72;;
64500;SDS011;50874;24.150;-110.320;2022-11-20T15:05:04;19.50;;;3.50;;
64500;SDS011;50874;24.150;-110.320;2022-11-20T15:07:32;13.85;;;2.90;;
64500;SDS011;50874;24.150;-110.320;2022-11-20T15:12:27;30.70;;;4.20;;
64500;SDS011;50874;24.150;-110.320;2022-11-20T15:14:55;23.63;;;4.03;;
64500;SDS011;50874;24.150;-110.320;2022-11-20T15:17:22;17.83;;;4.13;;
64500;SDS011;50874;24.150;-110.320;2022-11-20T15:19:48;17.35;;;2.88;;
64500;SDS011;50874;24.150;-110.320;2022-11-20T15:22:15;24.98;;;3.75;;
64500;SDS011;50874;24.150;-110.320;2022-11-20T15:24:41;22.90;;;3.70;;
64500;SDS011;50874;24.150;-110.320;2022-11-20T15:27:08;15.00;;;2.67;;
64500;SDS011;50874;24.150;-110.320;2022-11-20T15:29:35;24.50;;;3.70;;
64500;SDS011;50874;24.150;-110.320;2022-11-20T15:32:02;30.85;;;4.10;;
64500;SDS011;50874;24.150;-110.320;2022-11-20T15:34:28;23.77;;;3.50;;
64500;SDS011;50874;24.150;-110.320;2022-11-20T15:36:55;14.73;;;2.08;;
64500;SDS011;50874;24.150;-110.320;2022-11-20T15:39:21;41.78;;;5.85;;
64500;SDS011;50874;24.150;-110.320;2022-11-20T15:41:48;48.17;;;6.93;;
64500;SDS011;50874;24.150;-110.320;2022-11-20T15:44:14;13.93;;;2.50;;
64500;SDS011;50874;24.150;-110.320;2022-11-20T15:46:41;8.38;;;2.05;;
64500;SDS011;50874;24.150;-110.320;2022-11-20T15:49:13;15.55;;;2.38;;
64500;SDS011;50874;24.150;-110.320;2022-11-20T15:51:42;12.38;;;2.80;;
64500;SDS011;50874;24.150;-110.320;2022-11-20T15:54:15;11.90;;;2.80;;
64500;SDS011;50874;24.150;-110.320;2022-11-20T15:56:45;8.55;;;2.20;;
64500;SDS011;50874;24.150;-110.320;2022-11-20T15:59:17;40.22;;;5.18;;
64500;SDS011;50874;24.150;-110.320;2022-11-20T16:01:44;23.73;;;2.53;;
64500;SDS011;50874;24.150;-110.320;2022-11-20T16:04:14;34.78;;;3.53;;
64500;SDS011;50874;24.150;-110.320;2022-11-20T16:06:41;7.88;;;2.47;;
64500;SDS011;50874;24.150;-110.320;2022-11-20T16:09:08;15.15;;;3.00;;